N842JV KMRH-KFFA
Flight info
| Callsign | N842JV |
|---|---|
| Flight time | N/A |
| Altitude | 1500 |
| Route | DCT KHSE DCT AVON DCT RODANTHE |
| Aircraft | BE33/L-V/N |
Departure
| Time | 2026-05-07 22:33 |
|---|---|
| Airport | Michael J. Smith Field (KMRH) |
Arrival
| Time | N/A |
|---|---|
| Airport | First Flight Airport (KFFA) |
| Time | Latitude | Longitude | Altitude | Speed | Heading |
|---|---|---|---|---|---|
| 2026-05-07 22:24 | 34.73377 | -76.65541 | 7 ft | 0 kts | 86° |
| 2026-05-07 22:25 | 34.73377 | -76.65540 | 7 ft | 0 kts | 87° |
| 2026-05-07 22:25 | 34.73378 | -76.65532 | 7 ft | 1 kts | 89° |
| 2026-05-07 22:26 | 34.73387 | -76.65517 | 7 ft | 4 kts | 356° |
| 2026-05-07 22:26 | 34.73408 | -76.65521 | 7 ft | 4 kts | 350° |
| 2026-05-07 22:26 | 34.73447 | -76.65524 | 7 ft | 9 kts | 360° |
| 2026-05-07 22:26 | 34.73502 | -76.65525 | 7 ft | 6 kts | 359° |
| 2026-05-07 22:27 | 34.73583 | -76.65526 | 7 ft | 11 kts | 359° |
| 2026-05-07 22:27 | 34.73648 | -76.65528 | 7 ft | 6 kts | 1° |
| 2026-05-07 22:27 | 34.73676 | -76.65547 | 7 ft | 6 kts | 269° |
| 2026-05-07 22:27 | 34.73671 | -76.65566 | 7 ft | 0 kts | 240° |
| 2026-05-07 22:31 | 34.73670 | -76.65567 | 7 ft | 1 kts | 237° |
| 2026-05-07 22:31 | 34.73654 | -76.65618 | 7 ft | 8 kts | 248° |
| 2026-05-07 22:31 | 34.73620 | -76.65691 | 7 ft | 15 kts | 207° |
| 2026-05-07 22:32 | 34.73370 | -76.65836 | 7 ft | 64 kts | 203° |
| 2026-05-07 22:32 | 34.72890 | -76.66110 | 87 ft | 81 kts | 205° |
| 2026-05-07 22:32 | 34.72347 | -76.66385 | 305 ft | 87 kts | 202° |
| 2026-05-07 22:32 | 34.71781 | -76.66665 | 556 ft | 90 kts | 199° |
| 2026-05-07 22:33 | 34.71145 | -76.66469 | 747 ft | 107 kts | 142° |
| 2026-05-07 22:33 | 34.70707 | -76.65681 | 953 ft | 118 kts | 115° |
| 2026-05-07 22:33 | 34.70518 | -76.64722 | 1234 ft | 117 kts | 99° |
| 2026-05-07 22:33 | 34.70354 | -76.63749 | 1416 ft | 117 kts | 107° |
| 2026-05-07 22:34 | 34.70233 | -76.62754 | 1560 ft | 123 kts | 88° |
| 2026-05-07 22:34 | 34.70219 | -76.61737 | 1766 ft | 118 kts | 90° |
| 2026-05-07 22:34 | 34.70194 | -76.60704 | 1810 ft | 132 kts | 97° |
| 2026-05-07 22:34 | 34.70029 | -76.59560 | 1811 ft | 145 kts | 103° |
| 2026-05-07 22:35 | 34.69799 | -76.58320 | 1816 ft | 153 kts | 105° |
| 2026-05-07 22:35 | 34.69483 | -76.57040 | 1767 ft | 160 kts | 116° |
| 2026-05-07 22:35 | 34.69076 | -76.55770 | 1740 ft | 167 kts | 113° |
| 2026-05-07 22:35 | 34.68664 | -76.54439 | 1718 ft | 169 kts | 116° |
| 2026-05-07 22:36 | 34.68272 | -76.53071 | 1647 ft | 177 kts | 106° |
| 2026-05-07 22:36 | 34.67923 | -76.51604 | 1471 ft | 185 kts | 111° |
| 2026-05-07 22:36 | 34.67604 | -76.50311 | 1352 ft | 189 kts | 107° |
| 2026-05-07 22:36 | 34.67355 | -76.48777 | 1369 ft | 186 kts | 89° |
| 2026-05-07 22:37 | 34.67835 | -76.47379 | 1393 ft | 179 kts | 49° |
| 2026-05-07 22:37 | 34.68552 | -76.46144 | 1387 ft | 179 kts | 54° |
| 2026-05-07 22:37 | 34.69303 | -76.44962 | 1393 ft | 175 kts | 43° |
| 2026-05-07 22:37 | 34.70122 | -76.43859 | 1380 ft | 175 kts | 44° |
| 2026-05-07 22:38 | 34.70933 | -76.42761 | 1377 ft | 173 kts | 43° |
| 2026-05-07 22:38 | 34.71734 | -76.41679 | 1387 ft | 172 kts | 44° |
| 2026-05-07 22:38 | 34.72019 | -76.41260 | 1382 ft | 174 kts | 48° |
| 2026-05-07 22:39 | 34.72155 | -76.41034 | 1383 ft | 174 kts | 50° |
| 2026-05-07 22:39 | 34.72438 | -76.40555 | 1393 ft | 173 kts | 50° |
| 2026-05-07 22:39 | 34.73171 | -76.39389 | 1391 ft | 173 kts | 49° |
| 2026-05-07 22:39 | 34.73887 | -76.38236 | 1475 ft | 168 kts | 48° |
| 2026-05-07 22:40 | 34.74600 | -76.37113 | 1500 ft | 168 kts | 49° |
| 2026-05-07 22:40 | 34.75314 | -76.35969 | 1510 ft | 171 kts | 49° |
| 2026-05-07 22:40 | 34.76046 | -76.34792 | 1512 ft | 177 kts | 50° |
| 2026-05-07 22:40 | 34.76805 | -76.33585 | 1504 ft | 180 kts | 50° |
| 2026-05-07 22:41 | 34.77599 | -76.32403 | 1500 ft | 180 kts | 37° |
| 2026-05-07 22:41 | 34.78657 | -76.31632 | 1507 ft | 178 kts | 24° |
| 2026-05-07 22:41 | 34.79721 | -76.30837 | 1507 ft | 179 kts | 26° |
| 2026-05-07 22:41 | 34.80801 | -76.30064 | 1503 ft | 180 kts | 25° |
| 2026-05-07 22:42 | 34.81882 | -76.29290 | 1506 ft | 180 kts | 25° |
| 2026-05-07 22:42 | 34.82969 | -76.28517 | 1507 ft | 181 kts | 25° |
| 2026-05-07 22:42 | 34.84057 | -76.27730 | 1505 ft | 181 kts | 26° |
| 2026-05-07 22:42 | 34.85150 | -76.26964 | 1504 ft | 181 kts | 25° |
| 2026-05-07 22:43 | 34.86233 | -76.26172 | 1507 ft | 182 kts | 25° |
| 2026-05-07 22:43 | 34.87328 | -76.25394 | 1507 ft | 182 kts | 25° |
| 2026-05-07 22:43 | 34.88423 | -76.24618 | 1505 ft | 181 kts | 25° |
| 2026-05-07 22:43 | 34.89515 | -76.23845 | 1502 ft | 182 kts | 25° |
| 2026-05-07 22:44 | 34.90606 | -76.23060 | 1503 ft | 181 kts | 25° |
| 2026-05-07 22:44 | 34.91490 | -76.22424 | 1505 ft | 181 kts | 25° |
| 2026-05-07 22:44 | 34.92094 | -76.21989 | 1507 ft | 181 kts | 25° |
| 2026-05-07 22:44 | 34.93087 | -76.21030 | 1498 ft | 185 kts | 46° |
| 2026-05-07 22:45 | 34.93935 | -76.19859 | 1506 ft | 184 kts | 42° |
| 2026-05-07 22:45 | 34.94804 | -76.18714 | 1499 ft | 184 kts | 45° |
| 2026-05-07 22:45 | 34.95672 | -76.17566 | 1507 ft | 183 kts | 42° |
| 2026-05-07 22:45 | 34.96531 | -76.16414 | 1502 ft | 184 kts | 47° |
| 2026-05-07 22:46 | 34.97347 | -76.15203 | 1502 ft | 184 kts | 47° |
| 2026-05-07 22:46 | 34.98164 | -76.14003 | 1503 ft | 184 kts | 47° |
| 2026-05-07 22:46 | 34.98983 | -76.12801 | 1505 ft | 184 kts | 47° |
| 2026-05-07 22:46 | 34.99797 | -76.11591 | 1508 ft | 184 kts | 48° |
| 2026-05-07 22:47 | 35.00606 | -76.10381 | 1506 ft | 184 kts | 47° |
| 2026-05-07 22:47 | 35.01429 | -76.09173 | 1506 ft | 184 kts | 47° |
| 2026-05-07 22:47 | 35.02244 | -76.07963 | 1502 ft | 184 kts | 47° |
| 2026-05-07 22:47 | 35.03066 | -76.06762 | 1504 ft | 184 kts | 47° |
| 2026-05-07 22:48 | 35.03876 | -76.05547 | 1506 ft | 185 kts | 48° |
| 2026-05-07 22:48 | 35.04697 | -76.04338 | 1507 ft | 185 kts | 46° |
| 2026-05-07 22:48 | 35.05512 | -76.03125 | 1503 ft | 184 kts | 47° |
| 2026-05-07 22:48 | 35.06341 | -76.01926 | 1506 ft | 185 kts | 46° |
| 2026-05-07 22:49 | 35.07152 | -76.00706 | 1509 ft | 185 kts | 47° |
| 2026-05-07 22:49 | 35.07964 | -75.99491 | 1505 ft | 185 kts | 47° |
| 2026-05-07 22:49 | 35.08787 | -75.98288 | 1509 ft | 185 kts | 46° |
| 2026-05-07 22:49 | 35.09605 | -75.97073 | 1510 ft | 185 kts | 47° |
| 2026-05-07 22:50 | 35.10424 | -75.95864 | 1495 ft | 180 kts | 49° |
| 2026-05-07 22:50 | 35.11107 | -75.94592 | 1504 ft | 179 kts | 58° |
| 2026-05-07 22:50 | 35.11730 | -75.93303 | 1500 ft | 172 kts | 56° |
| 2026-05-07 22:50 | 35.12334 | -75.92064 | 1504 ft | 167 kts | 57° |
| 2026-05-07 22:51 | 35.12919 | -75.90859 | 1500 ft | 163 kts | 57° |
| 2026-05-07 22:51 | 35.13488 | -75.89674 | 1502 ft | 160 kts | 57° |
| 2026-05-07 22:51 | 35.14042 | -75.88506 | 1504 ft | 158 kts | 57° |
| 2026-05-07 22:51 | 35.14597 | -75.87358 | 1499 ft | 156 kts | 57° |
| 2026-05-07 22:52 | 35.15139 | -75.86215 | 1501 ft | 154 kts | 57° |
| 2026-05-07 22:52 | 35.15593 | -75.85029 | 1500 ft | 154 kts | 64° |
| 2026-05-07 22:52 | 35.16016 | -75.83831 | 1502 ft | 153 kts | 64° |
| 2026-05-07 22:52 | 35.16432 | -75.82634 | 1505 ft | 153 kts | 65° |
| 2026-05-07 22:53 | 35.16847 | -75.81435 | 1505 ft | 153 kts | 64° |
| 2026-05-07 22:53 | 35.17187 | -75.80213 | 1497 ft | 153 kts | 85° |
| 2026-05-07 22:53 | 35.17177 | -75.78921 | 1505 ft | 152 kts | 91° |
| 2026-05-07 22:53 | 35.17174 | -75.77686 | 1499 ft | 141 kts | 90° |
| 2026-05-07 22:54 | 35.17190 | -75.76484 | 1506 ft | 143 kts | 85° |
| 2026-05-07 22:54 | 35.17285 | -75.75265 | 1513 ft | 145 kts | 85° |
| 2026-05-07 22:54 | 35.17384 | -75.74032 | 1504 ft | 147 kts | 85° |
| 2026-05-07 22:54 | 35.17484 | -75.72786 | 1504 ft | 148 kts | 84° |
| 2026-05-07 22:55 | 35.17581 | -75.71530 | 1507 ft | 149 kts | 85° |
| 2026-05-07 22:55 | 35.17813 | -75.70306 | 1511 ft | 149 kts | 60° |
| 2026-05-07 22:55 | 35.18288 | -75.69179 | 1505 ft | 150 kts | 60° |
| 2026-05-07 22:55 | 35.18766 | -75.68040 | 1507 ft | 150 kts | 60° |
| 2026-05-07 22:56 | 35.19249 | -75.66903 | 1509 ft | 151 kts | 60° |
| 2026-05-07 22:56 | 35.19734 | -75.65763 | 1506 ft | 151 kts | 60° |
| 2026-05-07 22:56 | 35.20264 | -75.64671 | 1418 ft | 145 kts | 50° |
| 2026-05-07 22:56 | 35.20895 | -75.63719 | 1188 ft | 142 kts | 45° |
| 2026-05-07 22:57 | 35.21503 | -75.62783 | 1000 ft | 138 kts | 46° |
| 2026-05-07 22:57 | 35.22061 | -75.61904 | 945 ft | 126 kts | 49° |
| 2026-05-07 22:57 | 35.22557 | -75.61092 | 938 ft | 116 kts | 44° |
| 2026-05-07 22:57 | 35.23059 | -75.60372 | 924 ft | 111 kts | 42° |
| 2026-05-07 22:58 | 35.23538 | -75.59593 | 799 ft | 114 kts | 50° |
| 2026-05-07 22:58 | 35.24046 | -75.58939 | 661 ft | 98 kts | 9° |
| 2026-05-07 22:58 | 35.24593 | -75.59138 | 517 ft | 78 kts | 299° |
| 2026-05-07 22:58 | 35.24543 | -75.59706 | 427 ft | 74 kts | 230° |
| 2026-05-07 22:59 | 35.24148 | -75.60159 | 358 ft | 76 kts | 233° |
| 2026-05-07 22:59 | 35.23855 | -75.60701 | 199 ft | 77 kts | 242° |
| 2026-05-07 22:59 | 35.23572 | -75.61238 | 60 ft | 73 kts | 242° |
| 2026-05-07 22:59 | 35.23325 | -75.61692 | 10 ft | 51 kts | 243° |
| 2026-05-07 23:00 | 35.23088 | -75.62147 | 74 ft | 67 kts | 238° |
| 2026-05-07 23:00 | 35.22780 | -75.62554 | 282 ft | 71 kts | 199° |
| 2026-05-07 23:00 | 35.22334 | -75.62286 | 464 ft | 85 kts | 112° |
| 2026-05-07 23:00 | 35.22427 | -75.61506 | 543 ft | 104 kts | 58° |
| 2026-05-07 23:01 | 35.22768 | -75.60636 | 665 ft | 122 kts | 57° |
| 2026-05-07 23:01 | 35.23187 | -75.59651 | 784 ft | 137 kts | 59° |
| 2026-05-07 23:01 | 35.23640 | -75.58580 | 913 ft | 144 kts | 58° |
| 2026-05-07 23:01 | 35.24032 | -75.57665 | 1017 ft | 146 kts | 58° |
| 2026-05-07 23:02 | 35.24496 | -75.56588 | 1138 ft | 147 kts | 58° |
| 2026-05-07 23:02 | 35.24983 | -75.55474 | 1255 ft | 149 kts | 57° |
| 2026-05-07 23:02 | 35.25478 | -75.54349 | 1377 ft | 151 kts | 58° |
| 2026-05-07 23:02 | 35.25987 | -75.53216 | 1484 ft | 153 kts | 57° |
| 2026-05-07 23:03 | 35.26520 | -75.52046 | 1511 ft | 161 kts | 52° |
| 2026-05-07 23:03 | 35.27405 | -75.51263 | 1516 ft | 158 kts | 8° |
| 2026-05-07 23:03 | 35.28492 | -75.51038 | 1515 ft | 160 kts | 2° |
| 2026-05-07 23:03 | 35.29596 | -75.50802 | 1506 ft | 161 kts | 0° |
| 2026-05-07 23:04 | 35.30710 | -75.50584 | 1509 ft | 162 kts | 0° |
| 2026-05-07 23:04 | 35.31831 | -75.50398 | 1506 ft | 162 kts | 359° |
| 2026-05-07 23:04 | 35.32956 | -75.50216 | 1508 ft | 163 kts | 359° |
| 2026-05-07 23:04 | 35.34083 | -75.50028 | 1507 ft | 163 kts | 1° |
| 2026-05-07 23:05 | 35.35209 | -75.49744 | 1508 ft | 165 kts | 5° |
| 2026-05-07 23:05 | 35.36333 | -75.49453 | 1504 ft | 165 kts | 4° |
| 2026-05-07 23:05 | 35.37458 | -75.49149 | 1507 ft | 165 kts | 5° |
| 2026-05-07 23:05 | 35.38586 | -75.48856 | 1507 ft | 165 kts | 4° |
| 2026-05-07 23:06 | 35.39713 | -75.48558 | 1508 ft | 166 kts | 5° |
| 2026-05-07 23:06 | 35.40841 | -75.48259 | 1503 ft | 166 kts | 5° |
| 2026-05-07 23:06 | 35.41973 | -75.47966 | 1509 ft | 166 kts | 5° |
| 2026-05-07 23:06 | 35.43102 | -75.47670 | 1509 ft | 166 kts | 5° |
| 2026-05-07 23:07 | 35.44233 | -75.47369 | 1506 ft | 166 kts | 5° |
| 2026-05-07 23:07 | 35.45360 | -75.47076 | 1505 ft | 165 kts | 4° |
| 2026-05-07 23:07 | 35.46489 | -75.46774 | 1505 ft | 165 kts | 4° |
| 2026-05-07 23:07 | 35.47616 | -75.46473 | 1502 ft | 166 kts | 5° |
| 2026-05-07 23:08 | 35.48745 | -75.46164 | 1506 ft | 165 kts | 5° |
| 2026-05-07 23:08 | 35.49872 | -75.45871 | 1505 ft | 165 kts | 5° |
| 2026-05-07 23:08 | 35.50998 | -75.45572 | 1508 ft | 165 kts | 5° |
| 2026-05-07 23:08 | 35.52125 | -75.45276 | 1507 ft | 165 kts | 5° |
| 2026-05-07 23:09 | 35.53251 | -75.44977 | 1506 ft | 165 kts | 5° |
| 2026-05-07 23:09 | 35.54378 | -75.44681 | 1505 ft | 165 kts | 5° |
| 2026-05-07 23:09 | 35.55507 | -75.44385 | 1504 ft | 165 kts | 4° |
| 2026-05-07 23:09 | 35.56635 | -75.44087 | 1503 ft | 165 kts | 4° |
| 2026-05-07 23:10 | 35.57742 | -75.44104 | 1512 ft | 155 kts | 337° |
| 2026-05-07 23:10 | 35.58433 | -75.44374 | 1510 ft | 155 kts | 334° |
| 2026-05-07 23:10 | 35.58710 | -75.44475 | 1511 ft | 155 kts | 336° |
| 2026-05-07 23:10 | 35.58986 | -75.44572 | 1510 ft | 155 kts | 336° |
| 2026-05-07 23:11 | 35.59537 | -75.44770 | 1582 ft | 149 kts | 343° |
| 2026-05-07 23:11 | 35.60494 | -75.45273 | 1533 ft | 148 kts | 334° |
| 2026-05-07 23:11 | 35.61430 | -75.45789 | 1532 ft | 145 kts | 333° |
| 2026-05-07 23:11 | 35.62359 | -75.46270 | 1502 ft | 143 kts | 334° |
| 2026-05-07 23:12 | 35.63248 | -75.46789 | 1509 ft | 140 kts | 333° |
| 2026-05-07 23:12 | 35.64131 | -75.47289 | 1533 ft | 138 kts | 340° |
| 2026-05-07 23:12 | 35.64984 | -75.47855 | 1511 ft | 140 kts | 333° |
| 2026-05-07 23:12 | 35.65857 | -75.48358 | 1525 ft | 138 kts | 335° |
| 2026-05-07 23:13 | 35.66709 | -75.48910 | 1517 ft | 138 kts | 334° |
| 2026-05-07 23:13 | 35.67563 | -75.49445 | 1535 ft | 137 kts | 338° |
| 2026-05-07 23:13 | 35.68422 | -75.49965 | 1519 ft | 137 kts | 334° |
| 2026-05-07 23:13 | 35.69306 | -75.50343 | 1509 ft | 135 kts | 358° |
| 2026-05-07 23:14 | 35.70225 | -75.50557 | 1506 ft | 136 kts | 344° |
| 2026-05-07 23:14 | 35.71155 | -75.50739 | 1528 ft | 135 kts | 359° |
| 2026-05-07 23:14 | 35.72091 | -75.50899 | 1540 ft | 136 kts | 346° |
| 2026-05-07 23:14 | 35.73026 | -75.51097 | 1515 ft | 136 kts | 352° |
| 2026-05-07 23:15 | 35.73957 | -75.51350 | 1535 ft | 137 kts | 351° |
| 2026-05-07 23:15 | 35.74869 | -75.51535 | 1669 ft | 126 kts | 351° |
| 2026-05-07 23:15 | 35.75693 | -75.51733 | 1890 ft | 115 kts | 354° |
| 2026-05-07 23:15 | 35.76477 | -75.51892 | 2014 ft | 116 kts | 350° |
| 2026-05-07 23:16 | 35.77304 | -75.52080 | 2038 ft | 124 kts | 352° |
| 2026-05-07 23:16 | 35.78191 | -75.52232 | 2028 ft | 132 kts | 352° |
| 2026-05-07 23:16 | 35.79112 | -75.52443 | 2034 ft | 137 kts | 352° |
| 2026-05-07 23:16 | 35.80065 | -75.52633 | 2027 ft | 140 kts | 358° |
| 2026-05-07 23:17 | 35.80892 | -75.52065 | 2009 ft | 148 kts | 54° |
| 2026-05-07 23:17 | 35.80967 | -75.50775 | 2011 ft | 164 kts | 101° |
| 2026-05-07 23:17 | 35.80192 | -75.49706 | 2021 ft | 177 kts | 147° |
| 2026-05-07 23:17 | 35.78966 | -75.49503 | 2017 ft | 182 kts | 189° |
| 2026-05-07 23:18 | 35.77917 | -75.50298 | 2026 ft | 177 kts | 237° |
| 2026-05-07 23:18 | 35.77638 | -75.51683 | 2019 ft | 164 kts | 285° |
| 2026-05-07 23:18 | 35.78153 | -75.52856 | 2006 ft | 153 kts | 324° |
| 2026-05-07 23:18 | 35.79105 | -75.53339 | 2038 ft | 148 kts | 349° |
| 2026-05-07 23:19 | 35.80088 | -75.53077 | 2011 ft | 152 kts | 34° |
| 2026-05-07 23:19 | 35.80660 | -75.51968 | 2027 ft | 154 kts | 51° |
| 2026-05-07 23:19 | 35.81487 | -75.51232 | 2038 ft | 148 kts | 12° |
| 2026-05-07 23:19 | 35.82481 | -75.51496 | 2039 ft | 154 kts | 328° |
| 2026-05-07 23:20 | 35.83068 | -75.52636 | 2052 ft | 165 kts | 292° |
| 2026-05-07 23:20 | 35.83432 | -75.53969 | 2047 ft | 164 kts | 297° |
| 2026-05-07 23:20 | 35.83831 | -75.55291 | 2043 ft | 166 kts | 292° |
| 2026-05-07 23:20 | 35.84313 | -75.56564 | 1944 ft | 165 kts | 312° |
| 2026-05-07 23:21 | 35.85089 | -75.57618 | 1790 ft | 168 kts | 317° |
| 2026-05-07 23:21 | 35.85913 | -75.58644 | 1710 ft | 166 kts | 322° |
| 2026-05-07 23:21 | 35.86759 | -75.59596 | 1711 ft | 163 kts | 322° |
| 2026-05-07 23:21 | 35.87609 | -75.60507 | 1704 ft | 160 kts | 324° |
| 2026-05-07 23:22 | 35.88456 | -75.61397 | 1703 ft | 159 kts | 324° |
| 2026-05-07 23:22 | 35.89299 | -75.62276 | 1700 ft | 158 kts | 327° |
| 2026-05-07 23:22 | 35.90131 | -75.63113 | 1701 ft | 150 kts | 326° |
| 2026-05-07 23:22 | 35.90902 | -75.63940 | 1706 ft | 142 kts | 327° |
| 2026-05-07 23:23 | 35.91646 | -75.64695 | 1699 ft | 136 kts | 327° |
| 2026-05-07 23:23 | 35.92276 | -75.65384 | 1703 ft | 104 kts | 325° |
| 2026-05-07 23:23 | 35.92804 | -75.65861 | 1528 ft | 94 kts | 346° |
| 2026-05-07 23:23 | 35.93306 | -75.65997 | 1577 ft | 71 kts | 346° |
| 2026-05-07 23:24 | 35.93654 | -75.66154 | 1562 ft | 58 kts | 357° |